createdAt,value
2019-05-25T00:02:13.833Z,12.12
2019-05-25T00:04:42.472Z,12.13
2019-05-25T00:07:11.137Z,12.14
2019-05-25T00:09:39.770Z,12.11
2019-05-25T00:12:08.311Z,12.11
2019-05-25T00:14:37.431Z,12.10
2019-05-25T00:17:06.046Z,12.07
2019-05-25T00:19:34.631Z,12.03
2019-05-25T00:22:03.167Z,11.99
2019-05-25T00:24:31.757Z,11.98
2019-05-25T00:27:00.378Z,11.96
2019-05-25T00:29:29.066Z,11.97
2019-05-25T00:31:57.611Z,11.98
2019-05-25T00:34:28.056Z,11.96
2019-05-25T00:36:56.557Z,11.91
2019-05-25T00:39:25.173Z,11.92
2019-05-25T00:41:53.783Z,11.93
2019-05-25T00:44:22.324Z,11.94
2019-05-25T00:46:50.986Z,11.98
2019-05-25T00:49:19.600Z,11.98
2019-05-25T00:51:48.219Z,12.00
2019-05-25T00:54:27.429Z,12.00
2019-05-25T00:56:47.177Z,12.02
2019-05-25T00:59:15.784Z,12.00
2019-05-25T01:01:44.400Z,12.03
2019-05-25T01:04:15.680Z,12.03
2019-05-25T01:06:44.160Z,12.03
2019-05-25T01:09:12.778Z,12.04
2019-05-25T01:11:41.284Z,12.05
2019-05-25T01:14:11.328Z,12.04
2019-05-25T01:16:39.890Z,12.01
2019-05-25T01:19:08.455Z,12.01
2019-05-25T01:21:36.991Z,12.00
2019-05-25T01:24:05.888Z,12.00
2019-05-25T01:26:34.651Z,11.99
2019-05-25T01:29:03.452Z,11.97
2019-05-25T01:31:31.991Z,11.95
2019-05-25T01:34:00.564Z,11.96
2019-05-25T01:36:29.112Z,11.99
2019-05-25T01:38:57.675Z,12.01
2019-05-25T01:41:26.206Z,12.03
2019-05-25T01:43:54.756Z,12.04
2019-05-25T01:46:23.303Z,12.05
2019-05-25T01:48:51.943Z,12.04
2019-05-25T01:51:20.700Z,11.99
2019-05-25T01:53:49.362Z,12.01
2019-05-25T01:56:18.001Z,11.97
2019-05-25T01:58:46.641Z,12.00
2019-05-25T02:01:15.431Z,12.00
2019-05-25T02:03:44.090Z,12.02
2019-05-25T02:06:12.671Z,12.02
2019-05-25T02:08:41.173Z,12.03
2019-05-25T02:11:12.719Z,12.02
2019-05-25T02:13:41.366Z,12.04
2019-05-25T02:16:11.187Z,12.04
2019-05-25T02:18:39.734Z,12.00
2019-05-25T02:21:08.408Z,11.95
2019-05-25T02:23:37.179Z,11.95
2019-05-25T02:26:05.792Z,11.96
2019-05-25T02:28:34.379Z,11.95
2019-05-25T02:31:02.854Z,11.97
2019-05-25T02:33:31.576Z,11.97
2019-05-25T02:36:00.116Z,11.98
2019-05-25T02:38:28.723Z,11.98
2019-05-25T02:40:57.829Z,11.97
2019-05-25T02:43:26.461Z,11.98
2019-05-25T02:45:55.164Z,11.96
2019-05-25T02:48:23.717Z,11.96
2019-05-25T02:50:53.157Z,11.95
2019-05-25T02:53:21.753Z,11.91
2019-05-25T02:55:50.457Z,11.93
2019-05-25T02:58:19.070Z,11.93
2019-05-25T03:00:47.684Z,11.94
2019-05-25T03:03:16.717Z,11.94
2019-05-25T03:05:46.508Z,11.95
2019-05-25T03:08:15.116Z,11.94
2019-05-25T03:10:44.501Z,11.93
2019-05-25T03:13:13.112Z,11.94
2019-05-25T03:15:41.660Z,11.95
2019-05-25T03:18:10.271Z,11.97
2019-05-25T03:20:38.884Z,11.99
2019-05-25T03:23:07.496Z,11.95
2019-05-25T03:25:48.681Z,11.90
2019-05-25T03:28:06.437Z,11.87
2019-05-25T03:30:37.112Z,11.89
2019-05-25T03:33:06.299Z,11.91
2019-05-25T03:35:34.954Z,11.91
2019-05-25T03:38:03.617Z,11.93
2019-05-25T03:40:32.252Z,11.93
2019-05-25T03:43:00.865Z,11.94
2019-05-25T03:45:29.499Z,11.96
2019-05-25T03:47:58.557Z,11.96
2019-05-25T03:50:27.086Z,11.98
2019-05-25T03:52:55.734Z,11.99
2019-05-25T03:55:24.391Z,12.00
2019-05-25T03:57:52.941Z,12.01
2019-05-25T04:00:33.253Z,12.02
2019-05-25T04:03:01.971Z,12.03
2019-05-25T04:05:30.615Z,12.04
2019-05-25T04:07:59.153Z,12.04
2019-05-25T04:10:27.765Z,12.05
2019-05-25T04:12:56.297Z,12.06
2019-05-25T04:15:25.303Z,12.06
2019-05-25T04:17:53.849Z,12.09
2019-05-25T04:20:22.505Z,12.11
2019-05-25T04:22:51.125Z,12.13
2019-05-25T04:25:19.746Z,12.17
2019-05-25T04:27:49.571Z,12.20
2019-05-25T04:30:18.718Z,12.25
2019-05-25T04:32:47.742Z,12.32
2019-05-25T04:35:16.697Z,12.40
2019-05-25T04:37:45.267Z,12.45
2019-05-25T04:40:13.915Z,12.52
2019-05-25T04:42:42.537Z,12.62
2019-05-25T04:45:11.315Z,12.78
2019-05-25T04:47:39.805Z,12.92
2019-05-25T04:50:09.090Z,13.00
2019-05-25T04:52:40.977Z,13.08
2019-05-25T04:55:08.902Z,13.19
2019-05-25T04:57:37.645Z,13.28
2019-05-25T05:00:08.159Z,13.40
2019-05-25T05:02:36.779Z,13.50
2019-05-25T05:05:06.738Z,13.58
2019-05-25T05:07:35.348Z,13.72
2019-05-25T05:10:08.124Z,13.85
2019-05-25T05:12:36.756Z,13.90
2019-05-25T05:15:07.272Z,13.89
2019-05-25T05:17:35.880Z,13.96
2019-05-25T05:20:07.216Z,14.10
2019-05-25T05:22:35.823Z,14.22
2019-05-25T05:25:05.936Z,14.28
2019-05-25T05:27:34.477Z,14.30
2019-05-25T05:30:04.762Z,14.31
2019-05-25T05:32:33.377Z,14.36
2019-05-25T05:35:02.041Z,14.40
2019-05-25T05:37:32.199Z,14.46
2019-05-25T05:40:02.199Z,14.52
2019-05-25T05:42:33.077Z,14.54
2019-05-25T05:45:03.156Z,14.51
2019-05-25T05:47:34.700Z,14.49
2019-05-25T05:50:04.823Z,14.51
2019-05-25T05:52:38.741Z,14.53
2019-05-25T05:55:10.258Z,14.54
2019-05-25T05:57:38.905Z,14.56
2019-05-25T06:00:10.953Z,14.56
2019-05-25T06:02:39.594Z,14.58
2019-05-25T06:05:08.902Z,14.57
2019-05-25T06:07:37.514Z,14.57
2019-05-25T06:10:07.430Z,14.58
2019-05-25T06:12:36.041Z,14.60
2019-05-25T06:15:06.680Z,14.63
2019-05-25T06:17:35.295Z,14.66
2019-05-25T06:20:07.762Z,14.67
2019-05-25T06:22:36.408Z,14.69
2019-05-25T06:25:07.936Z,14.64
2019-05-25T06:27:37.079Z,14.62
2019-05-25T06:30:09.588Z,14.70
2019-05-25T06:32:38.382Z,14.75
2019-05-25T06:35:07.855Z,14.80
2019-05-25T06:37:36.546Z,14.82
2019-05-25T06:40:10.143Z,14.83
2019-05-25T06:42:38.811Z,14.85
2019-05-25T06:45:09.669Z,14.89
2019-05-25T06:47:38.283Z,14.90
2019-05-25T06:50:07.902Z,14.96
2019-05-25T06:52:36.486Z,15.05
2019-05-25T06:55:07.371Z,15.06
2019-05-25T06:57:43.266Z,15.10
2019-05-25T07:00:08.777Z,15.17
2019-05-25T07:02:38.072Z,15.21
2019-05-25T07:05:09.983Z,15.23
2019-05-25T07:07:38.602Z,15.27
2019-05-25T07:10:09.728Z,15.44
2019-05-25T07:12:38.384Z,15.69
2019-05-25T07:15:10.399Z,16.06
2019-05-25T07:17:38.952Z,16.25
2019-05-25T07:20:08.385Z,16.40
2019-05-25T07:22:37.004Z,16.49
2019-05-25T07:25:07.598Z,16.41
2019-05-25T07:27:36.301Z,16.44
2019-05-25T07:30:09.978Z,16.33
2019-05-25T07:32:38.614Z,16.25
2019-05-25T07:35:08.123Z,16.24
2019-05-25T07:37:39.739Z,16.25
2019-05-25T07:40:09.021Z,16.22
2019-05-25T07:42:37.787Z,16.26
2019-05-25T07:45:08.768Z,16.40
2019-05-25T07:47:37.378Z,16.52
2019-05-25T07:50:09.955Z,16.60
2019-05-25T07:52:38.780Z,16.58
2019-05-25T07:55:08.127Z,16.62
2019-05-25T07:57:37.034Z,16.91
2019-05-25T08:00:07.250Z,17.32
2019-05-25T08:02:35.733Z,17.59
2019-05-25T08:05:06.260Z,17.63
2019-05-25T08:07:34.876Z,17.60
2019-05-25T08:10:03.889Z,17.68
2019-05-25T08:12:32.605Z,17.90
2019-05-25T08:15:01.265Z,18.15
2019-05-25T08:17:30.033Z,18.24
2019-05-25T08:19:58.579Z,18.27
2019-05-25T08:22:27.052Z,18.13
2019-05-25T08:24:55.592Z,18.11
2019-05-25T08:27:24.208Z,18.29
2019-05-25T08:29:52.864Z,18.66
2019-05-25T08:32:21.475Z,18.91
2019-05-25T08:34:49.954Z,18.95
2019-05-25T08:37:18.619Z,19.07
2019-05-25T08:39:47.560Z,18.90
2019-05-25T08:42:16.170Z,18.72
2019-05-25T08:44:44.857Z,18.71
2019-05-25T08:47:13.399Z,18.68
2019-05-25T08:49:41.944Z,18.52
2019-05-25T08:52:10.493Z,18.36
2019-05-25T08:54:39.121Z,18.23
2019-05-25T08:57:07.762Z,18.19
2019-05-25T08:59:36.336Z,18.05
2019-05-25T09:02:04.955Z,18.08
2019-05-25T09:04:33.497Z,18.22
2019-05-25T09:07:02.133Z,18.23
2019-05-25T09:09:30.600Z,18.30
2019-05-25T09:11:59.219Z,18.46
2019-05-25T09:14:27.761Z,18.58
2019-05-25T09:16:56.304Z,18.66
2019-05-25T09:19:24.812Z,18.60
2019-05-25T09:22:02.378Z,18.79
2019-05-25T09:24:23.838Z,18.66
2019-05-25T09:26:52.385Z,18.61
2019-05-25T09:29:21.008Z,18.57
2019-05-25T09:31:49.665Z,18.82
2019-05-25T09:34:18.211Z,19.07
2019-05-25T09:36:46.831Z,19.17
2019-05-25T09:39:15.388Z,19.10
2019-05-25T09:41:43.929Z,19.24
2019-05-25T09:44:12.533Z,19.27
2019-05-25T09:46:41.068Z,19.63
2019-05-25T09:49:09.830Z,19.68
2019-05-25T09:51:38.444Z,19.56
2019-05-25T09:54:06.993Z,19.38
2019-05-25T09:56:35.714Z,19.22
2019-05-25T09:59:17.625Z,19.15
2019-05-25T10:01:34.702Z,19.09
2019-05-25T10:04:03.357Z,18.91
2019-05-25T10:06:31.953Z,18.82
2019-05-25T10:09:00.628Z,18.95
2019-05-25T10:11:29.251Z,19.14
2019-05-25T10:13:57.847Z,19.35
2019-05-25T10:16:26.507Z,19.53
2019-05-25T10:18:55.147Z,19.54
2019-05-25T10:21:23.688Z,19.24
2019-05-25T10:23:52.303Z,19.03
2019-05-25T10:26:23.015Z,18.88
2019-05-25T10:28:51.100Z,18.78
2019-05-25T10:31:19.648Z,19.15
2019-05-25T10:33:49.093Z,19.42
2019-05-25T10:36:17.705Z,19.68
2019-05-25T10:38:46.348Z,19.79
2019-05-25T10:41:14.976Z,19.86
2019-05-25T10:43:43.534Z,19.97
2019-05-25T10:46:12.245Z,20.35
2019-05-25T10:48:40.848Z,20.51
2019-05-25T10:51:09.459Z,20.46
2019-05-25T10:53:38.000Z,20.22
2019-05-25T10:56:06.656Z,19.94
2019-05-25T10:58:35.341Z,20.13
2019-05-25T11:01:03.960Z,20.52
2019-05-25T11:03:32.497Z,20.67
2019-05-25T11:06:01.143Z,20.88
2019-05-25T11:08:30.067Z,21.12
2019-05-25T11:10:58.675Z,21.32
2019-05-25T11:13:28.947Z,21.54
2019-05-25T11:15:57.585Z,21.66
2019-05-25T11:18:26.351Z,21.71
2019-05-25T11:20:54.859Z,21.86
2019-05-25T11:23:23.469Z,21.95
2019-05-25T11:25:52.078Z,21.65
2019-05-25T11:28:21.015Z,21.37
2019-05-25T11:30:49.534Z,21.36
2019-05-25T11:33:18.109Z,21.53
2019-05-25T11:35:46.755Z,21.73
2019-05-25T11:38:15.367Z,21.77
2019-05-25T11:40:43.976Z,21.71
2019-05-25T11:43:12.469Z,21.60
2019-05-25T11:45:41.086Z,21.63
2019-05-25T11:48:09.630Z,21.65
2019-05-25T11:50:38.236Z,21.56
2019-05-25T11:53:06.882Z,21.60
2019-05-25T11:55:35.482Z,21.55
2019-05-25T11:58:04.301Z,21.24
2019-05-25T12:00:33.630Z,21.09
2019-05-25T12:03:02.209Z,20.96
2019-05-25T12:05:30.816Z,20.55
2019-05-25T12:07:59.447Z,20.48
2019-05-25T12:10:28.052Z,20.34
2019-05-25T12:12:56.672Z,20.29
2019-05-25T12:15:25.341Z,20.26
2019-05-25T12:17:53.803Z,20.17
2019-05-25T12:20:22.886Z,20.07
2019-05-25T12:22:51.427Z,19.94
2019-05-25T12:25:20.061Z,19.77
2019-05-25T12:27:49.498Z,19.73
2019-05-25T12:30:20.715Z,19.71
2019-05-25T12:32:49.383Z,19.68
2019-05-25T12:35:19.538Z,19.65
2019-05-25T12:37:48.932Z,19.60
2019-05-25T12:40:18.070Z,19.56
2019-05-25T12:42:46.712Z,19.50
2019-05-25T12:45:15.759Z,19.40
2019-05-25T12:47:44.386Z,19.34
2019-05-25T12:50:13.492Z,19.35
2019-05-25T12:52:42.687Z,19.34
2019-05-25T12:55:11.402Z,19.30
2019-05-25T12:57:40.005Z,19.27
2019-05-25T13:00:16.182Z,19.27
2019-05-25T13:02:39.927Z,19.28
2019-05-25T13:05:09.196Z,19.26
2019-05-25T13:07:37.804Z,19.27
2019-05-25T13:10:07.802Z,19.27
2019-05-25T13:12:36.411Z,19.27
2019-05-25T13:15:07.023Z,19.23
2019-05-25T13:17:35.550Z,19.20
2019-05-25T13:20:05.963Z,19.20
2019-05-25T13:22:34.438Z,19.19
2019-05-25T13:25:03.053Z,19.17
2019-05-25T13:27:31.729Z,19.19
2019-05-25T13:30:03.024Z,19.20
2019-05-25T13:32:30.702Z,19.20
2019-05-25T13:34:59.182Z,19.18
2019-05-25T13:37:27.795Z,19.17
2019-05-25T13:39:56.298Z,19.18
2019-05-25T13:42:24.819Z,19.17
2019-05-25T13:44:53.431Z,19.16
2019-05-25T13:47:22.097Z,19.12
2019-05-25T13:49:50.670Z,19.10
2019-05-25T13:52:19.260Z,19.10
2019-05-25T13:54:47.806Z,19.11
2019-05-25T13:57:16.386Z,19.12
2019-05-25T13:59:45.129Z,19.13
2019-05-25T14:02:13.681Z,19.12
2019-05-25T14:04:42.143Z,19.09
2019-05-25T14:07:10.761Z,19.09
2019-05-25T14:09:39.436Z,19.06
2019-05-25T14:12:07.991Z,19.04
2019-05-25T14:14:36.458Z,19.01
2019-05-25T14:17:05.169Z,19.04
2019-05-25T14:19:33.707Z,19.04
2019-05-25T14:22:02.345Z,19.01
2019-05-25T14:24:30.872Z,19.01
2019-05-25T14:26:59.533Z,19.05
2019-05-25T14:29:28.073Z,19.04
2019-05-25T14:31:56.779Z,19.02
2019-05-25T14:34:25.514Z,19.03
2019-05-25T14:36:53.986Z,19.05
2019-05-25T14:39:22.530Z,19.02
2019-05-25T14:41:51.087Z,19.01
2019-05-25T14:44:19.825Z,18.99
2019-05-25T14:46:48.474Z,18.96
2019-05-25T14:49:17.620Z,18.95
2019-05-25T14:51:46.387Z,18.96
2019-05-25T14:54:14.860Z,18.98
2019-05-25T14:56:43.697Z,18.97
2019-05-25T14:59:12.341Z,18.95
2019-05-25T15:01:40.878Z,18.96
2019-05-25T15:04:09.490Z,18.99
2019-05-25T15:06:38.096Z,19.00
2019-05-25T15:09:07.969Z,19.01
2019-05-25T15:11:36.535Z,19.02
2019-05-25T15:14:05.143Z,19.02
2019-05-25T15:16:33.784Z,19.01
2019-05-25T15:19:02.409Z,19.01
2019-05-25T15:21:31.100Z,18.98
2019-05-25T15:23:59.680Z,18.97
2019-05-25T15:26:28.220Z,18.99
2019-05-25T15:28:56.875Z,19.01
2019-05-25T15:31:25.494Z,18.98
2019-05-25T15:33:54.189Z,19.01
2019-05-25T15:36:22.663Z,18.99
2019-05-25T15:38:52.664Z,18.96
2019-05-25T15:41:21.139Z,18.98
2019-05-25T15:43:49.711Z,18.99
2019-05-25T15:46:18.243Z,19.03
2019-05-25T15:48:46.887Z,19.11
2019-05-25T15:51:15.534Z,19.13
2019-05-25T15:53:44.150Z,19.16
2019-05-25T15:56:12.615Z,19.14
2019-05-25T15:58:41.161Z,19.14
2019-05-25T16:01:09.797Z,19.08
2019-05-25T16:03:38.384Z,18.99
2019-05-25T16:06:06.931Z,18.96
2019-05-25T16:08:37.124Z,18.94
2019-05-25T16:11:05.735Z,18.89
2019-05-25T16:13:34.276Z,18.83
2019-05-25T16:16:02.939Z,18.78
2019-05-25T16:18:31.547Z,18.77
2019-05-25T16:21:00.021Z,18.74
2019-05-25T16:23:28.560Z,18.70
2019-05-25T16:25:57.253Z,18.68
2019-05-25T16:28:25.800Z,18.69
2019-05-25T16:30:54.515Z,18.67
2019-05-25T16:33:23.124Z,18.66
2019-05-25T16:35:52.258Z,18.62
2019-05-25T16:38:21.300Z,18.56
2019-05-25T16:40:49.904Z,18.54
2019-05-25T16:43:18.639Z,18.52
2019-05-25T16:45:47.236Z,18.47
2019-05-25T16:48:15.852Z,18.45
2019-05-25T16:50:44.332Z,18.43
2019-05-25T16:53:12.966Z,18.41
2019-05-25T16:55:41.583Z,18.35
2019-05-25T16:58:10.191Z,18.29
2019-05-25T17:00:38.842Z,18.24
2019-05-25T17:03:07.712Z,18.18
2019-05-25T17:05:36.324Z,18.09
2019-05-25T17:08:04.981Z,18.03
2019-05-25T17:10:33.526Z,17.94
2019-05-25T17:13:03.602Z,17.87
2019-05-25T17:15:32.868Z,17.79
2019-05-25T17:18:04.668Z,17.68
2019-05-25T17:20:31.843Z,17.60
2019-05-25T17:23:00.556Z,17.48
2019-05-25T17:25:29.217Z,17.40
2019-05-25T17:27:57.822Z,17.31
2019-05-25T17:30:45.361Z,17.27
2019-05-25T17:33:14.426Z,17.21
2019-05-25T17:35:44.338Z,17.14
2019-05-25T17:38:12.990Z,17.06
2019-05-25T17:40:41.651Z,16.98
2019-05-25T17:43:10.288Z,16.90
2019-05-25T17:45:38.998Z,16.83
2019-05-25T17:48:07.617Z,16.77
2019-05-25T17:50:36.242Z,16.70
2019-05-25T17:53:05.118Z,16.64
2019-05-25T17:55:33.731Z,16.53
2019-05-25T17:58:02.280Z,16.42
2019-05-25T18:00:42.199Z,16.32
2019-05-25T18:03:10.867Z,16.23
2019-05-25T18:05:39.712Z,16.14
2019-05-25T18:08:09.120Z,16.10
2019-05-25T18:10:52.150Z,16.03
2019-05-25T18:13:08.367Z,15.92
2019-05-25T18:15:36.975Z,15.89
2019-05-25T18:18:07.361Z,15.87
2019-05-25T18:20:36.277Z,15.86
2019-05-25T18:23:05.290Z,15.80
2019-05-25T18:25:33.827Z,15.76
2019-05-25T18:28:02.448Z,15.74
2019-05-25T18:30:31.267Z,15.68
2019-05-25T18:33:00.089Z,15.59
2019-05-25T18:35:28.702Z,15.55
2019-05-25T18:37:57.315Z,15.49
2019-05-25T18:40:26.226Z,15.42
2019-05-25T18:42:54.800Z,15.37
2019-05-25T18:45:24.765Z,15.23
2019-05-25T18:47:53.276Z,15.14
2019-05-25T18:50:22.318Z,15.02
2019-05-25T18:52:50.814Z,14.88
2019-05-25T18:55:19.828Z,14.76
2019-05-25T18:57:48.436Z,14.64
2019-05-25T19:00:17.661Z,14.54
2019-05-25T19:02:46.221Z,14.51
2019-05-25T19:05:15.674Z,14.44
2019-05-25T19:07:44.266Z,14.34
2019-05-25T19:10:13.317Z,14.26
2019-05-25T19:12:41.977Z,14.19
2019-05-25T19:15:11.321Z,14.10
2019-05-25T19:17:40.000Z,14.02
2019-05-25T19:20:09.570Z,13.93
2019-05-25T19:22:38.247Z,13.86
2019-05-25T19:25:09.536Z,13.78
2019-05-25T19:27:38.144Z,13.73
2019-05-25T19:30:08.652Z,13.68
2019-05-25T19:32:37.204Z,13.63
2019-05-25T19:35:06.695Z,13.58
2019-05-25T19:37:35.156Z,13.54
2019-05-25T19:40:08.999Z,13.49
2019-05-25T19:42:36.035Z,13.46
2019-05-25T19:45:07.697Z,13.43
2019-05-25T19:47:36.308Z,13.38
2019-05-25T19:50:06.993Z,13.28
2019-05-25T19:52:38.563Z,13.18
2019-05-25T19:55:07.869Z,13.09
2019-05-25T19:57:37.879Z,13.02
2019-05-25T20:00:08.738Z,12.97
2019-05-25T20:02:37.756Z,12.96
2019-05-25T20:05:16.464Z,12.93
2019-05-25T20:07:40.264Z,12.90
2019-05-25T20:10:09.989Z,12.82
2019-05-25T20:12:38.870Z,12.72
2019-05-25T20:15:08.688Z,12.70
2019-05-25T20:17:37.959Z,12.64
2019-05-25T20:20:09.295Z,12.56
2019-05-25T20:22:37.813Z,12.50
2019-05-25T20:25:07.169Z,12.45
2019-05-25T20:27:37.140Z,12.42
2019-05-25T20:30:07.787Z,12.40
2019-05-25T20:32:36.400Z,12.39
2019-05-25T20:35:06.325Z,12.34
2019-05-25T20:37:34.949Z,12.32
2019-05-25T20:40:04.559Z,12.29
2019-05-25T20:42:33.193Z,12.28
2019-05-25T20:45:01.767Z,12.22
2019-05-25T20:47:30.652Z,12.24
2019-05-25T20:50:02.224Z,12.22
2019-05-25T20:52:30.909Z,12.19
2019-05-25T20:54:59.444Z,12.18
2019-05-25T20:57:28.005Z,12.14
2019-05-25T20:59:56.628Z,12.04
2019-05-25T21:02:25.858Z,11.98
2019-05-25T21:04:54.429Z,11.95
2019-05-25T21:07:22.997Z,11.87
2019-05-25T21:09:51.611Z,11.81
2019-05-25T21:12:20.210Z,11.79
2019-05-25T21:14:48.830Z,11.75
2019-05-25T21:17:17.464Z,11.70
2019-05-25T21:19:46.265Z,11.63
2019-05-25T21:22:14.767Z,11.57
2019-05-25T21:24:43.338Z,11.54
2019-05-25T21:27:13.388Z,11.52
2019-05-25T21:29:42.030Z,11.48
2019-05-25T21:32:10.686Z,11.45
2019-05-25T21:34:39.324Z,11.47
2019-05-25T21:37:09.451Z,11.52
2019-05-25T21:39:38.084Z,11.55
2019-05-25T21:42:06.709Z,11.54
2019-05-25T21:44:35.373Z,11.50
2019-05-25T21:47:04.004Z,11.46
2019-05-25T21:49:32.688Z,11.39
2019-05-25T21:52:01.305Z,11.35
2019-05-25T21:54:29.926Z,11.36
2019-05-25T21:56:58.546Z,11.34
2019-05-25T21:59:27.151Z,11.33
2019-05-25T22:01:55.777Z,11.29
2019-05-25T22:04:24.396Z,11.27
2019-05-25T22:06:53.031Z,11.21
2019-05-25T22:09:21.586Z,11.26
2019-05-25T22:11:50.206Z,11.32
2019-05-25T22:14:18.826Z,11.36
2019-05-25T22:16:47.489Z,11.34
2019-05-25T22:19:16.122Z,11.28
2019-05-25T22:21:46.445Z,11.27
2019-05-25T22:24:14.875Z,11.25
2019-05-25T22:26:43.357Z,11.23
2019-05-25T22:29:12.176Z,11.25
2019-05-25T22:31:40.787Z,11.28
2019-05-25T22:34:09.405Z,11.28
2019-05-25T22:36:40.955Z,11.29
2019-05-25T22:39:08.938Z,11.32
2019-05-25T22:41:38.733Z,11.32
2019-05-25T22:44:07.379Z,11.32
2019-05-25T22:46:35.923Z,11.35
2019-05-25T22:49:04.880Z,11.36
2019-05-25T22:51:33.517Z,11.37
2019-05-25T22:54:02.159Z,11.36
2019-05-25T22:56:30.765Z,11.35
2019-05-25T22:58:59.374Z,11.38
2019-05-25T23:01:27.921Z,11.36
2019-05-25T23:03:56.468Z,11.33
2019-05-25T23:06:26.587Z,11.29
2019-05-25T23:08:55.215Z,11.25
2019-05-25T23:11:23.861Z,11.20
2019-05-25T23:13:52.443Z,11.17
2019-05-25T23:16:21.086Z,11.14
2019-05-25T23:18:49.635Z,11.11
2019-05-25T23:21:18.302Z,11.07
2019-05-25T23:23:46.852Z,11.05
2019-05-25T23:26:15.631Z,11.09
2019-05-25T23:28:44.186Z,11.07
2019-05-25T23:31:14.319Z,11.03
2019-05-25T23:33:42.831Z,10.98
2019-05-25T23:36:11.477Z,10.93
2019-05-25T23:38:40.062Z,10.92
2019-05-25T23:41:08.615Z,10.89
2019-05-25T23:43:37.296Z,10.87
2019-05-25T23:46:06.163Z,10.84
2019-05-25T23:48:34.781Z,10.85
2019-05-25T23:51:03.388Z,10.85
2019-05-25T23:53:31.995Z,10.85
2019-05-25T23:56:02.123Z,10.77
2019-05-25T23:58:30.753Z,10.69
